createdAt,value
2019-02-09T00:02:28.038Z,79.96
2019-02-09T00:05:30.821Z,80.51
2019-02-09T00:08:35.244Z,80.98
2019-02-09T00:11:40.033Z,82.41
2019-02-09T00:14:42.673Z,81.80
2019-02-09T00:17:45.412Z,82.03
2019-02-09T00:20:48.155Z,82.95
2019-02-09T00:23:51.747Z,82.24
2019-02-09T00:26:56.477Z,82.63
2019-02-09T00:30:00.947Z,83.61
2019-02-09T00:33:04.128Z,82.93
2019-02-09T00:36:06.856Z,82.32
2019-02-09T00:39:09.457Z,82.24
2019-02-09T00:42:12.106Z,83.26
2019-02-09T00:45:15.961Z,83.02
2019-02-09T00:48:19.673Z,82.99
2019-02-09T00:51:22.388Z,82.24
2019-02-09T00:54:25.206Z,85.19
2019-02-09T00:57:27.908Z,86.83
2019-02-09T01:00:31.585Z,90.28
2019-02-09T01:03:35.483Z,91.84
2019-02-09T01:06:38.098Z,92.33
2019-02-09T01:09:40.744Z,93.61
2019-02-09T01:12:43.416Z,94.89
2019-02-09T01:15:47.246Z,97.02
2019-02-09T01:18:49.807Z,98.25
2019-02-09T01:21:53.645Z,98.19
2019-02-09T01:24:56.206Z,98.66
2019-02-09T01:27:58.774Z,98.83
2019-02-09T01:31:02.099Z,99.26
2019-02-09T01:34:04.712Z,100.59
2019-02-09T01:37:08.109Z,99.39
2019-02-09T01:40:13.230Z,99.43
2019-02-09T01:43:16.093Z,100.51
2019-02-09T01:46:18.683Z,101.98
2019-02-09T01:49:21.281Z,102.19
2019-02-09T01:52:23.959Z,102.65
2019-02-09T01:55:28.132Z,100.95
2019-02-09T01:58:30.797Z,101.72
2019-02-09T02:01:33.367Z,102.07
2019-02-09T02:04:35.973Z,102.22
2019-02-09T02:07:38.621Z,102.27
2019-02-09T02:10:41.372Z,102.81
2019-02-09T02:13:44.057Z,102.26
2019-02-09T02:16:46.813Z,102.24
2019-02-09T02:19:50.628Z,103.14
2019-02-09T02:22:53.348Z,103.81
2019-02-09T02:25:55.918Z,103.86
2019-02-09T02:28:58.592Z,104.10
2019-02-09T02:32:01.136Z,103.87
2019-02-09T02:35:04.503Z,104.39
2019-02-09T02:38:07.218Z,104.23
2019-02-09T02:41:09.769Z,104.39
2019-02-09T02:44:12.452Z,104.07
2019-02-09T02:47:15.122Z,104.45
2019-02-09T02:50:18.537Z,104.45
2019-02-09T02:53:21.237Z,103.39
2019-02-09T02:56:23.967Z,103.46
2019-02-09T02:59:26.555Z,102.79
2019-02-09T03:02:29.220Z,100.83
2019-02-09T03:05:31.927Z,101.75
2019-02-09T03:08:34.552Z,101.41
2019-02-09T03:11:37.233Z,101.64
2019-02-09T03:14:39.790Z,103.26
2019-02-09T03:17:42.445Z,103.43
2019-02-09T03:20:45.195Z,102.52
2019-02-09T03:23:47.912Z,101.40
2019-02-09T03:26:50.446Z,102.13
2019-02-09T03:29:53.610Z,102.13
2019-02-09T03:32:56.395Z,102.17
2019-02-09T03:35:59.062Z,101.72
2019-02-09T03:39:03.002Z,101.81
2019-02-09T03:42:06.623Z,102.50
2019-02-09T03:45:19.080Z,102.22
2019-02-09T03:48:21.737Z,100.98
2019-02-09T03:51:24.464Z,101.42
2019-02-09T03:54:27.237Z,101.64
2019-02-09T03:57:30.031Z,100.88
2019-02-09T04:00:33.701Z,100.91
2019-02-09T04:03:36.377Z,100.53
2019-02-09T04:06:39.140Z,100.35
2019-02-09T04:09:41.774Z,99.46
2019-02-09T04:12:44.378Z,99.95
2019-02-09T04:15:47.150Z,99.79
2019-02-09T04:18:49.802Z,99.57
2019-02-09T04:21:52.546Z,98.79
2019-02-09T04:24:55.181Z,98.72
2019-02-09T04:27:57.967Z,99.18
2019-02-09T04:31:06.008Z,98.43
2019-02-09T04:34:08.007Z,99.32
2019-02-09T04:37:10.824Z,98.96
2019-02-09T04:40:16.065Z,98.61
2019-02-09T04:43:18.651Z,99.00
2019-02-09T04:46:21.218Z,98.40
2019-02-09T04:49:23.882Z,98.64
2019-02-09T04:52:26.552Z,98.68
2019-02-09T04:55:29.191Z,98.79
2019-02-09T04:58:31.827Z,98.95
2019-02-09T05:01:34.433Z,98.76
2019-02-09T05:04:37.009Z,98.61
2019-02-09T05:07:39.636Z,98.02
2019-02-09T05:10:42.166Z,97.90
2019-02-09T05:13:44.825Z,98.31
2019-02-09T05:16:47.683Z,98.78
2019-02-09T05:19:50.365Z,98.65
2019-02-09T05:22:53.641Z,98.58
2019-02-09T05:25:56.297Z,98.24
2019-02-09T05:28:58.885Z,98.16
2019-02-09T05:32:01.451Z,97.91
2019-02-09T05:35:04.572Z,97.12
2019-02-09T05:38:08.455Z,97.02
2019-02-09T05:41:11.048Z,96.54
2019-02-09T05:44:13.741Z,95.53
2019-02-09T05:47:16.424Z,95.19
2019-02-09T05:50:19.343Z,95.50
2019-02-09T05:53:22.093Z,95.24
2019-02-09T05:56:27.772Z,94.89
2019-02-09T05:59:30.666Z,94.85
2019-02-09T06:02:33.318Z,94.18
2019-02-09T06:05:36.068Z,93.92
2019-02-09T06:08:39.626Z,92.54
2019-02-09T06:11:42.331Z,92.71
2019-02-09T06:14:45.598Z,92.59
2019-02-09T06:17:48.182Z,91.46
2019-02-09T06:20:51.695Z,91.06
2019-02-09T06:23:54.400Z,89.75
2019-02-09T06:26:57.419Z,90.00
2019-02-09T06:30:00.315Z,90.61
2019-02-09T06:33:04.947Z,90.11
2019-02-09T06:36:08.761Z,89.44
2019-02-09T06:39:11.447Z,89.51
2019-02-09T06:42:14.182Z,89.81
2019-02-09T06:45:19.632Z,89.94
2019-02-09T06:48:27.202Z,88.93
2019-02-09T06:51:29.800Z,89.07
2019-02-09T06:54:32.406Z,88.20
2019-02-09T06:57:35.335Z,88.79
2019-02-09T07:00:38.217Z,88.87
2019-02-09T07:03:40.846Z,88.88
2019-02-09T07:06:43.717Z,89.31
2019-02-09T07:09:46.360Z,88.98
2019-02-09T07:12:50.352Z,87.82
2019-02-09T07:15:52.955Z,87.94
2019-02-09T07:18:55.586Z,87.62
2019-02-09T07:21:59.057Z,87.07
2019-02-09T07:25:01.751Z,87.07
2019-02-09T07:28:05.056Z,86.99
2019-02-09T07:31:07.755Z,86.60
2019-02-09T07:34:10.321Z,86.48
2019-02-09T07:37:13.393Z,86.21
2019-02-09T07:40:16.747Z,86.21
2019-02-09T07:43:19.332Z,86.72
2019-02-09T07:46:22.206Z,86.52
2019-02-09T07:49:24.906Z,86.81
2019-02-09T07:52:27.586Z,87.15
2019-02-09T07:55:30.207Z,87.11
2019-02-09T07:58:33.165Z,86.49
2019-02-09T08:01:35.794Z,85.34
2019-02-09T08:04:38.391Z,84.95
2019-02-09T08:07:41.200Z,84.34
2019-02-09T08:10:44.367Z,83.45
2019-02-09T08:13:47.088Z,82.08
2019-02-09T08:16:49.671Z,82.22
2019-02-09T08:19:52.345Z,81.65
2019-02-09T08:22:55.999Z,81.96
2019-02-09T08:25:58.659Z,81.73
2019-02-09T08:29:01.452Z,81.71
2019-02-09T08:32:12.316Z,81.09
2019-02-09T08:35:09.307Z,80.61
2019-02-09T08:38:13.620Z,80.06
2019-02-09T08:41:16.347Z,80.99
2019-02-09T08:44:19.972Z,79.96
2019-02-09T08:47:22.611Z,78.21
2019-02-09T08:50:30.983Z,78.39
2019-02-09T08:53:33.571Z,77.68
2019-02-09T08:56:36.152Z,77.39
2019-02-09T08:59:38.955Z,78.01
2019-02-09T09:02:43.307Z,76.48
2019-02-09T09:05:46.401Z,77.24
2019-02-09T09:08:49.046Z,76.21
2019-02-09T09:11:51.680Z,75.62
2019-02-09T09:14:54.260Z,74.76
2019-02-09T09:17:57.002Z,74.79
2019-02-09T09:21:01.532Z,74.12
2019-02-09T09:24:04.209Z,74.27
2019-02-09T09:27:06.891Z,74.29
2019-02-09T09:30:11.821Z,75.43
2019-02-09T09:33:14.455Z,73.76
2019-02-09T09:36:17.161Z,73.51
2019-02-09T09:39:19.917Z,73.88
2019-02-09T09:42:22.632Z,73.81
2019-02-09T09:45:27.614Z,73.64
2019-02-09T09:48:30.367Z,74.27
2019-02-09T09:51:33.230Z,74.57
2019-02-09T09:54:35.990Z,74.40
2019-02-09T09:57:38.777Z,74.88
2019-02-09T10:00:41.575Z,74.07
2019-02-09T10:03:44.237Z,74.75
2019-02-09T10:06:47.012Z,74.38
2019-02-09T10:09:49.749Z,74.14
2019-02-09T10:12:52.421Z,75.37
2019-02-09T10:15:55.229Z,74.46
2019-02-09T10:18:58.067Z,73.68
2019-02-09T10:22:00.776Z,71.79
2019-02-09T10:25:04.173Z,72.14
2019-02-09T10:28:06.887Z,71.85
2019-02-09T10:31:10.411Z,72.75
2019-02-09T10:34:13.081Z,72.64
2019-02-09T10:37:15.655Z,71.42
2019-02-09T10:40:20.544Z,71.67
2019-02-09T10:43:23.207Z,70.56
2019-02-09T10:46:25.891Z,70.60
2019-02-09T10:49:28.476Z,71.61
2019-02-09T10:52:31.201Z,71.48
2019-02-09T10:55:34.040Z,71.89
2019-02-09T10:58:36.567Z,73.49
2019-02-09T11:01:39.446Z,74.74
2019-02-09T11:04:42.158Z,76.04
2019-02-09T11:07:45.019Z,76.23
2019-02-09T11:10:47.845Z,76.60
2019-02-09T11:13:50.555Z,76.34
2019-02-09T11:16:53.200Z,75.13
2019-02-09T11:19:55.879Z,76.91
2019-02-09T11:22:58.527Z,76.10
2019-02-09T11:26:01.304Z,76.20
2019-02-09T11:29:04.239Z,75.05
2019-02-09T11:32:06.882Z,74.04
2019-02-09T11:35:09.894Z,71.50
2019-02-09T11:38:12.630Z,71.92
2019-02-09T11:41:15.380Z,70.27
2019-02-09T11:44:19.124Z,69.25
2019-02-09T11:47:21.867Z,69.15
2019-02-09T11:50:24.695Z,67.50
2019-02-09T11:53:27.279Z,67.86
2019-02-09T11:56:29.989Z,67.58
2019-02-09T11:59:32.643Z,67.76
2019-02-09T12:02:35.370Z,66.78
2019-02-09T12:05:38.092Z,66.29
2019-02-09T12:08:40.737Z,67.52
2019-02-09T12:11:43.469Z,66.69
2019-02-09T12:14:46.155Z,66.76
2019-02-09T12:17:48.811Z,66.73
2019-02-09T12:20:51.490Z,66.74
2019-02-09T12:23:54.211Z,66.85
2019-02-09T12:26:56.925Z,66.25
2019-02-09T12:29:59.686Z,66.68
2019-02-09T12:33:02.908Z,65.70
2019-02-09T12:36:05.855Z,66.04
2019-02-09T12:39:09.875Z,64.84
2019-02-09T12:42:13.136Z,65.19
2019-02-09T12:45:16.496Z,65.91
2019-02-09T12:48:21.685Z,66.22
2019-02-09T12:51:25.444Z,65.84
2019-02-09T12:54:28.512Z,66.55
2019-02-09T12:57:31.764Z,67.12
2019-02-09T13:00:35.490Z,66.29
2019-02-09T13:03:38.294Z,65.62
2019-02-09T13:06:41.278Z,66.52
2019-02-09T13:09:43.963Z,66.38
2019-02-09T13:12:46.731Z,65.94
2019-02-09T13:15:49.794Z,65.90
2019-02-09T13:18:54.768Z,66.51
2019-02-09T13:21:57.615Z,66.46
2019-02-09T13:25:00.323Z,66.83
2019-02-09T13:28:03.673Z,67.07
2019-02-09T13:31:08.160Z,67.46
2019-02-09T13:34:12.050Z,67.61
2019-02-09T13:37:14.638Z,66.81
2019-02-09T13:40:18.044Z,67.51
2019-02-09T13:43:20.720Z,66.39
2019-02-09T13:46:23.304Z,65.54
2019-02-09T13:49:25.919Z,65.74
2019-02-09T13:52:28.562Z,66.22
2019-02-09T13:55:31.528Z,68.15
2019-02-09T13:58:34.135Z,70.82
2019-02-09T14:01:36.750Z,74.52
2019-02-09T14:04:39.323Z,70.69
2019-02-09T14:07:42.149Z,71.34
2019-02-09T14:10:44.724Z,70.76
2019-02-09T14:13:47.416Z,71.15
2019-02-09T14:16:49.948Z,74.88
2019-02-09T14:19:52.550Z,84.95
2019-02-09T14:22:55.329Z,84.95
2019-02-09T14:25:58.099Z,84.10
2019-02-09T14:29:00.741Z,83.24
2019-02-09T14:32:03.401Z,82.21
2019-02-09T14:35:08.166Z,82.49
2019-02-09T14:38:11.079Z,80.61
2019-02-09T14:41:13.794Z,80.19
2019-02-09T14:44:16.333Z,80.18
2019-02-09T14:47:18.959Z,75.97
2019-02-09T14:50:21.664Z,76.04
2019-02-09T14:53:25.204Z,76.25
2019-02-09T14:56:28.019Z,76.57
2019-02-09T14:59:30.674Z,77.08
2019-02-09T15:02:33.367Z,75.76
2019-02-09T15:05:36.338Z,75.59
2019-02-09T15:08:38.948Z,74.29
2019-02-09T15:11:41.718Z,73.49
2019-02-09T15:14:44.317Z,75.46
2019-02-09T15:17:46.996Z,72.83
2019-02-09T15:20:53.082Z,72.61
2019-02-09T15:23:55.795Z,74.23
2019-02-09T15:26:58.445Z,73.94
2019-02-09T15:30:01.035Z,74.04
2019-02-09T15:33:03.892Z,74.21
2019-02-09T15:36:06.553Z,74.21
2019-02-09T15:39:09.281Z,74.00
2019-02-09T15:42:11.914Z,74.23
2019-02-09T15:45:16.329Z,74.12
2019-02-09T15:48:19.032Z,74.61
2019-02-09T15:51:21.919Z,74.99
2019-02-09T15:54:24.618Z,75.71
2019-02-09T15:57:28.353Z,75.75
2019-02-09T16:00:31.248Z,75.48
2019-02-09T16:03:34.006Z,76.11
2019-02-09T16:06:36.658Z,77.30
2019-02-09T16:09:39.334Z,76.87
2019-02-09T16:12:41.954Z,76.52
2019-02-09T16:15:44.609Z,76.28
2019-02-09T16:18:49.423Z,75.23
2019-02-09T16:21:52.033Z,76.02
2019-02-09T16:24:54.631Z,75.75
2019-02-09T16:27:57.662Z,73.49
2019-02-09T16:31:00.397Z,74.68
2019-02-09T16:34:03.183Z,75.18
2019-02-09T16:37:06.232Z,73.94
2019-02-09T16:40:14.783Z,73.86
2019-02-09T16:43:17.374Z,74.12
2019-02-09T16:46:20.026Z,74.53
2019-02-09T16:49:24.721Z,74.07
2019-02-09T16:52:27.208Z,74.85
2019-02-09T16:55:29.947Z,75.75
2019-02-09T16:58:32.768Z,75.54
2019-02-09T17:01:35.463Z,75.77
2019-02-09T17:04:38.038Z,76.32
2019-02-09T17:07:40.730Z,75.69
2019-02-09T17:10:43.478Z,76.82
2019-02-09T17:13:46.320Z,77.52
2019-02-09T17:16:49.036Z,78.71
2019-02-09T17:19:51.818Z,78.80
2019-02-09T17:22:54.568Z,78.87
2019-02-09T17:25:57.282Z,78.36
2019-02-09T17:28:59.974Z,78.75
2019-02-09T17:32:04.553Z,78.71
2019-02-09T17:35:08.007Z,78.03
2019-02-09T17:38:10.719Z,77.84
2019-02-09T17:41:13.442Z,77.10
2019-02-09T17:44:16.203Z,77.89
2019-02-09T17:47:18.853Z,77.19
2019-02-09T17:50:21.734Z,78.58
2019-02-09T17:53:24.405Z,78.70
2019-02-09T17:56:26.962Z,79.37
2019-02-09T17:59:29.757Z,79.58
2019-02-09T18:02:32.362Z,80.84
2019-02-09T18:05:34.958Z,81.57
2019-02-09T18:08:37.487Z,81.12
2019-02-09T18:11:40.263Z,80.66
2019-02-09T18:14:42.969Z,81.43
2019-02-09T18:17:45.563Z,81.42
2019-02-09T18:20:48.197Z,82.31
2019-02-09T18:23:50.903Z,81.50
2019-02-09T18:26:53.503Z,81.74
2019-02-09T18:29:56.075Z,82.40
2019-02-09T18:32:58.861Z,82.60
2019-02-09T18:36:01.582Z,82.65
2019-02-09T18:39:09.426Z,83.09
2019-02-09T18:42:12.174Z,83.56
2019-02-09T18:45:17.814Z,83.36
2019-02-09T18:48:20.540Z,83.20
2019-02-09T18:51:23.167Z,83.37
2019-02-09T18:54:25.965Z,82.36
2019-02-09T18:57:28.632Z,82.41
2019-02-09T19:00:32.155Z,83.13
2019-02-09T19:03:34.728Z,82.43
2019-02-09T19:06:37.419Z,82.50
2019-02-09T19:09:40.271Z,81.64
2019-02-09T19:12:42.990Z,81.51
2019-02-09T19:15:45.692Z,81.25
2019-02-09T19:18:48.443Z,80.93
2019-02-09T19:21:51.132Z,80.93
2019-02-09T19:24:53.858Z,80.35
2019-02-09T19:27:56.589Z,80.76
2019-02-09T19:30:59.319Z,79.91
2019-02-09T19:34:02.178Z,80.41
2019-02-09T19:37:05.853Z,80.56
2019-02-09T19:40:09.188Z,80.63
2019-02-09T19:43:11.863Z,80.74
2019-02-09T19:46:14.483Z,80.35
2019-02-09T19:49:17.171Z,80.28
2019-02-09T19:52:19.822Z,80.51
2019-02-09T19:55:24.433Z,80.57
2019-02-09T19:58:27.008Z,81.14
2019-02-09T20:01:29.607Z,80.86
2019-02-09T20:04:32.312Z,80.80
2019-02-09T20:07:34.987Z,81.95
2019-02-09T20:10:38.370Z,81.35
2019-02-09T20:13:42.820Z,82.08
2019-02-09T20:16:45.539Z,82.57
2019-02-09T20:19:48.172Z,82.74
2019-02-09T20:22:50.842Z,83.76
2019-02-09T20:25:53.543Z,83.21
2019-02-09T20:28:56.160Z,82.92
2019-02-09T20:31:59.871Z,83.05
2019-02-09T20:35:02.727Z,83.39
2019-02-09T20:38:05.723Z,83.65
2019-02-09T20:41:09.171Z,83.43
2019-02-09T20:44:11.957Z,83.34
2019-02-09T20:47:14.610Z,83.47
2019-02-09T20:50:17.774Z,84.29
2019-02-09T20:53:20.453Z,83.34
2019-02-09T20:56:23.087Z,83.19
2019-02-09T20:59:25.823Z,83.76
2019-02-09T21:02:28.574Z,84.11
2019-02-09T21:05:36.408Z,84.77
2019-02-09T21:08:35.947Z,84.83
2019-02-09T21:11:38.691Z,84.21
2019-02-09T21:14:41.388Z,84.31
2019-02-09T21:17:44.077Z,83.82
2019-02-09T21:20:46.741Z,84.11
2019-02-09T21:23:49.431Z,83.82
2019-02-09T21:26:52.165Z,85.04
2019-02-09T21:29:54.915Z,85.27
2019-02-09T21:32:57.656Z,85.55
2019-02-09T21:36:01.189Z,86.25
2019-02-09T21:39:07.886Z,86.24
2019-02-09T21:42:10.653Z,85.09
2019-02-09T21:45:18.851Z,86.45
2019-02-09T21:48:21.491Z,86.41
2019-02-09T21:51:24.230Z,86.84
2019-02-09T21:54:26.917Z,87.51
2019-02-09T21:57:29.657Z,87.04
2019-02-09T22:00:34.425Z,86.80
2019-02-09T22:03:37.162Z,86.32
2019-02-09T22:06:39.846Z,86.74
2019-02-09T22:09:42.569Z,87.17
2019-02-09T22:12:45.437Z,87.62
2019-02-09T22:15:48.070Z,86.90
2019-02-09T22:18:51.019Z,86.57
2019-02-09T22:21:54.046Z,86.96
2019-02-09T22:24:57.124Z,86.15
2019-02-09T22:28:01.074Z,85.88
2019-02-09T22:31:04.031Z,85.79
2019-02-09T22:34:06.787Z,85.65
2019-02-09T22:37:09.436Z,85.43
2019-02-09T22:40:14.670Z,84.35
2019-02-09T22:43:18.408Z,84.88
2019-02-09T22:46:21.202Z,84.55
2019-02-09T22:49:23.858Z,84.25
2019-02-09T22:52:27.070Z,83.78
2019-02-09T22:55:29.847Z,82.76
2019-02-09T22:58:32.503Z,83.32
2019-02-09T23:01:52.852Z,83.69
2019-02-09T23:05:02.066Z,83.25
2019-02-09T23:08:05.931Z,83.50
2019-02-09T23:11:08.587Z,82.89
2019-02-09T23:14:11.186Z,83.42
2019-02-09T23:17:13.905Z,83.63
2019-02-09T23:20:16.492Z,83.79
2019-02-09T23:23:19.227Z,82.75
2019-02-09T23:26:21.910Z,83.01
2019-02-09T23:29:24.512Z,83.09
2019-02-09T23:32:27.227Z,82.84
2019-02-09T23:35:29.890Z,82.73
2019-02-09T23:38:32.626Z,82.27
2019-02-09T23:41:35.329Z,83.69
2019-02-09T23:44:37.981Z,83.31
2019-02-09T23:47:40.771Z,83.77
2019-02-09T23:50:43.456Z,83.34
2019-02-09T23:53:46.077Z,83.84
2019-02-09T23:56:48.785Z,83.30
2019-02-09T23:59:51.442Z,84.12
